メインページ
METAR-TAF:

METAR-TAF

空港 :

徳島飛行場

徳島, 日本

緯度: 34-08N, 経度: 134-37E, 海抜: 8m

現時点の気象観測

当レポートは7時間55分前の23:28(UTC)に作成
変向風 2kt
気温 25°C
湿度 69%
気圧 1011 hPa
視程10km以上
高度3000ftの雲はほとんどない
高度4000ftの雲は散在している
高度5000ftの千切れ雲あり

METAR: RJOS 192328Z VRB02KT 9999 FEW030 SCT040 BKN050 25/19 Q1011 RMK 1CU030 4CU040 6SC050 A2987

時間: 16:23 (07:23 UTC)


TAF: 見つかりません

4,000以上の空港の気象観測と天気予報(METAR報とTAF報)

利用可能な観測所は地図上に黄色い丸と赤い丸で示す。

丸の上にカーソルを重ねると観測所名を参照できる。

次にクリックすると気象観測と天気予報を参照できる。

マップの切り替え:黒色「×」印の緑ボタンをクリックして拡大、「-」印の緑ボタンをクリックして縮小、緑色の三角印をクリックして隣りの地図に切り替え


METAR-TAF: